Aérodrome :







RETROUVEZ-NOUS SUR...

 
LOGIN :

S'inscrire | Disclaimer

   EN    FR    IT 

 









Légende :    VFR   VFR Marginal   IFR   IFR Intensif   IFR Très Intensif
Visi : 
Plafond : 
>= 8 km
>= 3000ft
5 à 8 km
1000 à 3000 ft
1500m à 5 km
500 à 1000 ft
800 à 1500m
200 à 500 ft
< 800m
< 200 ft
Symboles :   Orages  Brouillard  Fortes neiges  Fortes précipitations  Vent > 20 kt






- Altitude de l'aérodrome : 84 ft
- Code IATA : YJT


CYJT - Stephenville

DERNIER METAR :
  • 241800Z 16005KT 15SM BKN240 02/M02 A3011 RMK CI5 SLP199

METARs EXPIRÉS :
  • 241700Z 13006KT 15SM FEW030 BKN240 03/M03 A3011 RMK CU1CI4 SLP200
  • 241600Z 11009KT 15SM SCT240 02/M04 A3014 RMK CI3 SLP208

TAF TAF CYJT
Valide du 24 à 18h jusqu'au 25 à 18h UTC


241743Z 2418/2518 15010KT P6SM FEW020
TEMPO 2418/2512 BKN020
BECMG 2506/2508 20008KT
FM251200 24008KT P6SM SCT015 BKN050 OVC160 RMK NXT FCST BY 250000Z



MET'MAP, la Météo Aéronautique d'un coup d'oeil ! - Copyright ORBIFLY Décembre 2007 - Disclaimer

ORBIFLY MET'MAP TEAM :

Programmation & Développement : Alexandra Zaïnal
Sur une idée originale de : Baudouin d'Aumeries
Assistance à la programmation : Marc-Olivier Méhu
Soutien technique & logistique : Manuel Goepfert

Contact : metmap@orbifly.com




SOURCES & CREDITS :

   NOAA